createdAt,value
2022-09-17T00:01:40.619Z,6.53
2022-09-17T00:04:09.352Z,3.75
2022-09-17T00:06:39.149Z,4.30
2022-09-17T00:09:08.584Z,3.78
2022-09-17T00:11:39.908Z,3.75
2022-09-17T00:14:12.805Z,6.03
2022-09-17T00:16:44.039Z,6.60
2022-09-17T00:19:15.743Z,5.30
2022-09-17T00:21:45.628Z,3.85
2022-09-17T00:24:15.587Z,6.88
2022-09-17T00:26:44.472Z,6.05
2022-09-17T00:29:13.611Z,4.15
2022-09-17T00:31:42.050Z,6.78
2022-09-17T00:34:12.048Z,4.75
2022-09-17T00:36:41.471Z,3.97
2022-09-17T00:39:15.761Z,5.40
2022-09-17T00:41:45.020Z,5.82
2022-09-17T00:44:43.106Z,3.65
2022-09-17T00:47:18.617Z,4.25
2022-09-17T00:49:48.202Z,4.72
2022-09-17T00:52:21.479Z,5.72
2022-09-17T00:54:56.335Z,3.15
2022-09-17T00:57:25.736Z,5.78
2022-09-17T00:59:54.440Z,4.13
2022-09-17T01:02:23.154Z,3.33
2022-09-17T01:04:51.576Z,4.15
2022-09-17T01:07:40.869Z,4.63
2022-09-17T01:10:20.464Z,3.38
2022-09-17T01:13:03.320Z,3.00
2022-09-17T01:15:38.111Z,5.30
2022-09-17T01:18:21.964Z,4.03
2022-09-17T01:21:34.292Z,2.72
2022-09-17T01:24:32.887Z,2.20
2022-09-17T01:27:28.443Z,2.72
2022-09-17T01:30:18.433Z,2.13
2022-09-17T01:32:54.591Z,1.27
2022-09-17T01:35:29.244Z,1.90
2022-09-17T01:38:07.190Z,1.67
2022-09-17T01:40:42.523Z,1.35
2022-09-17T01:43:17.991Z,2.05
2022-09-17T01:45:52.479Z,1.73
2022-09-17T01:48:25.580Z,2.85
2022-09-17T01:50:57.328Z,1.95
2022-09-17T01:53:30.724Z,3.13
2022-09-17T01:56:01.172Z,1.10
2022-09-17T01:58:33.823Z,2.03
2022-09-17T02:01:06.697Z,1.92
2022-09-17T02:03:42.283Z,1.08
2022-09-17T02:06:16.848Z,1.48
2022-09-17T02:08:50.699Z,0.80
2022-09-17T02:11:20.968Z,0.98
2022-09-17T02:13:55.087Z,2.35
2022-09-17T02:16:27.775Z,2.75
2022-09-17T02:19:04.952Z,5.15
2022-09-17T02:21:42.400Z,3.28
2022-09-17T02:24:18.975Z,1.58
2022-09-17T02:26:53.592Z,1.85
2022-09-17T02:29:28.112Z,0.90
2022-09-17T02:31:56.906Z,0.50
2022-09-17T02:34:29.557Z,1.00
2022-09-17T02:36:59.714Z,0.60
2022-09-17T02:39:29.356Z,0.50
2022-09-17T02:42:10.520Z,1.58
2022-09-17T02:44:48.120Z,0.77
2022-09-17T02:47:35.031Z,0.55
2022-09-17T02:50:16.289Z,0.32
2022-09-17T02:52:58.047Z,0.50
2022-09-17T02:55:34.716Z,0.60
2022-09-17T02:58:10.716Z,0.75
2022-09-17T03:00:39.243Z,0.30
2022-09-17T03:03:13.978Z,0.70
2022-09-17T03:05:44.603Z,0.38
2022-09-17T03:08:15.785Z,0.20
2022-09-17T03:10:44.060Z,0.20
2022-09-17T03:13:12.397Z,0.40
2022-09-17T03:15:40.767Z,0.20
2022-09-17T03:18:09.103Z,0.28
2022-09-17T03:20:37.531Z,0.47
2022-09-17T03:23:07.318Z,0.20
2022-09-17T03:25:35.854Z,0.55
2022-09-17T03:28:04.404Z,0.25
2022-09-17T03:30:32.756Z,0.20
2022-09-17T03:33:01.123Z,0.65
2022-09-17T03:35:29.616Z,0.63
2022-09-17T03:37:58.312Z,0.20
2022-09-17T03:40:28.438Z,0.55
2022-09-17T03:42:57.470Z,0.20
2022-09-17T03:45:25.860Z,0.10
2022-09-17T03:47:54.177Z,0.10
2022-09-17T03:50:22.492Z,0.75
2022-09-17T03:52:50.931Z,0.50
2022-09-17T03:55:19.383Z,0.73
2022-09-17T03:57:49.122Z,0.05
2022-09-17T04:00:18.119Z,1.70
2022-09-17T04:02:46.590Z,0.63
2022-09-17T04:05:15.100Z,1.48
2022-09-17T04:07:43.572Z,0.22
2022-09-17T04:10:12.068Z,0.57
2022-09-17T04:12:41.008Z,0.05
2022-09-17T04:15:11.905Z,0.10
2022-09-17T04:17:40.343Z,0.10
2022-09-17T04:20:09.359Z,0.90
2022-09-17T04:22:37.738Z,0.10
2022-09-17T04:25:06.755Z,0.70
2022-09-17T04:27:35.120Z,0.88
2022-09-17T04:30:03.537Z,2.88
2022-09-17T04:32:33.316Z,1.45
2022-09-17T04:35:01.706Z,1.23
2022-09-17T04:37:30.031Z,0.75
2022-09-17T04:39:58.496Z,0.82
2022-09-17T04:42:27.104Z,2.10
2022-09-17T04:44:55.460Z,0.32
2022-09-17T04:47:23.781Z,0.32
2022-09-17T04:49:53.637Z,0.13
2022-09-17T04:52:21.970Z,0.73
2022-09-17T04:54:50.411Z,0.60
2022-09-17T04:57:18.807Z,0.30
2022-09-17T04:59:47.196Z,1.17
2022-09-17T05:02:15.573Z,0.75
2022-09-17T05:04:44.303Z,1.33
2022-09-17T05:07:14.344Z,3.35
2022-09-17T05:09:43.178Z,2.60
2022-09-17T05:12:11.567Z,2.90
2022-09-17T05:14:39.960Z,1.80
2022-09-17T05:17:08.340Z,1.10
2022-09-17T05:19:37.027Z,3.47
2022-09-17T05:22:05.450Z,1.88
2022-09-17T05:24:39.358Z,2.50
2022-09-17T05:27:07.940Z,3.17
2022-09-17T05:29:36.936Z,2.00
2022-09-17T05:32:05.966Z,4.40
2022-09-17T05:34:34.782Z,5.03
2022-09-17T05:37:03.274Z,2.83
2022-09-17T05:39:31.617Z,3.40
2022-09-17T05:42:01.329Z,3.92
2022-09-17T05:44:29.735Z,2.50
2022-09-17T05:46:58.208Z,2.20
2022-09-17T05:49:26.942Z,3.25
2022-09-17T05:51:55.336Z,2.42
2022-09-17T05:54:23.697Z,2.58
2022-09-17T05:56:55.299Z,1.30
2022-09-17T05:59:25.664Z,3.90
2022-09-17T06:01:54.519Z,2.13
2022-09-17T06:04:23.413Z,1.13
2022-09-17T06:06:53.358Z,1.48
2022-09-17T06:09:22.103Z,3.30
2022-09-17T06:11:50.552Z,0.88
2022-09-17T06:14:18.927Z,1.45
2022-09-17T06:16:48.785Z,0.93
2022-09-17T06:19:17.127Z,0.95
2022-09-17T06:21:45.547Z,1.75
2022-09-17T06:24:14.383Z,1.70
2022-09-17T06:26:42.837Z,1.25
2022-09-17T06:29:11.280Z,2.50
2022-09-17T06:31:41.251Z,0.45
2022-09-17T06:34:11.689Z,0.63
2022-09-17T06:36:40.173Z,2.22
2022-09-17T06:39:09.713Z,0.60
2022-09-17T06:41:38.146Z,0.95
2022-09-17T06:44:06.597Z,0.88
2022-09-17T06:46:35.047Z,2.45
2022-09-17T06:49:03.424Z,2.85
2022-09-17T06:51:33.104Z,3.03
2022-09-17T06:54:02.695Z,1.95
2022-09-17T06:56:30.988Z,2.90
2022-09-17T06:58:59.389Z,3.47
2022-09-17T07:01:28.178Z,3.35
2022-09-17T07:03:56.576Z,4.90
2022-09-17T07:06:24.992Z,4.63
2022-09-17T07:08:54.717Z,4.53
2022-09-17T07:11:23.400Z,7.45
2022-09-17T07:13:51.900Z,6.60
2022-09-17T07:16:20.425Z,6.40
2022-09-17T07:18:48.909Z,6.45
2022-09-17T07:21:17.240Z,8.77
2022-09-17T07:23:46.030Z,7.95
2022-09-17T07:26:17.116Z,10.45
2022-09-17T07:28:46.054Z,7.00
2022-09-17T07:31:16.681Z,7.63
2022-09-17T07:33:46.951Z,10.70
2022-09-17T07:36:18.226Z,9.45
2022-09-17T07:38:47.326Z,11.50
2022-09-17T07:41:19.484Z,6.80
2022-09-17T07:43:47.912Z,11.35
2022-09-17T07:46:18.119Z,9.05
2022-09-17T07:48:46.769Z,7.88
2022-09-17T07:51:19.587Z,7.93
2022-09-17T07:53:49.095Z,10.03
2022-09-17T07:56:18.851Z,4.03
2022-09-17T07:58:47.335Z,7.38
2022-09-17T08:01:17.478Z,8.68
2022-09-17T08:03:50.464Z,9.32
2022-09-17T08:06:21.916Z,12.75
2022-09-17T08:08:51.020Z,11.98
2022-09-17T08:11:55.210Z,8.43
2022-09-17T08:14:14.049Z,7.25
2022-09-17T08:16:42.731Z,11.50
2022-09-17T08:19:11.396Z,9.75
2022-09-17T08:21:40.416Z,8.95
2022-09-17T08:24:09.112Z,4.68
2022-09-17T08:26:39.325Z,8.85
2022-09-17T08:29:08.355Z,11.70
2022-09-17T08:31:37.373Z,11.65
2022-09-17T08:34:11.051Z,8.38
2022-09-17T08:36:39.948Z,11.55
2022-09-17T08:39:08.672Z,8.55
2022-09-17T08:41:54.182Z,12.80
2022-09-17T08:44:32.036Z,6.35
2022-09-17T08:47:06.580Z,8.23
2022-09-17T08:49:37.727Z,10.57
2022-09-17T08:52:32.976Z,12.35
2022-09-17T08:55:09.251Z,8.30
2022-09-17T08:57:44.687Z,6.45
2022-09-17T09:00:16.317Z,10.80
2022-09-17T09:03:01.509Z,10.68
2022-09-17T09:05:33.635Z,6.63
2022-09-17T09:08:07.784Z,10.50
2022-09-17T09:10:47.808Z,12.48
2022-09-17T09:13:21.575Z,9.00
2022-09-17T09:18:23.536Z,11.07
2022-09-17T09:20:55.676Z,5.38
2022-09-17T09:23:34.852Z,10.35
2022-09-17T09:26:18.082Z,8.10
2022-09-17T09:29:12.928Z,9.90
2022-09-17T09:32:00.183Z,8.57
2022-09-17T09:34:30.694Z,10.23
2022-09-17T09:37:13.255Z,8.80
2022-09-17T09:39:46.103Z,11.15
2022-09-17T09:42:21.507Z,10.48
2022-09-17T09:44:51.716Z,10.18
2022-09-17T09:47:35.858Z,10.93
2022-09-17T09:50:21.264Z,11.65
2022-09-17T09:53:03.732Z,10.85
2022-09-17T09:55:49.707Z,9.23
2022-09-17T09:58:26.262Z,9.93
2022-09-17T10:00:56.155Z,8.68
2022-09-17T10:03:26.076Z,10.05
2022-09-17T10:06:00.020Z,11.02
2022-09-17T10:08:29.644Z,6.05
2022-09-17T10:11:01.724Z,9.15
2022-09-17T10:13:32.910Z,9.02
2022-09-17T10:16:18.488Z,9.80
2022-09-17T10:18:47.192Z,7.95
2022-09-17T10:21:21.464Z,7.85
2022-09-17T10:23:51.533Z,9.38
2022-09-17T10:26:26.066Z,6.72
2022-09-17T10:28:57.078Z,10.20
2022-09-17T10:31:27.645Z,9.63
2022-09-17T10:34:00.115Z,10.13
2022-09-17T10:36:41.599Z,10.13
2022-09-17T10:39:45.184Z,8.48
2022-09-17T10:42:16.777Z,9.70
2022-09-17T10:44:53.572Z,7.20
2022-09-17T10:47:29.228Z,5.75
2022-09-17T10:50:01.494Z,5.32
2022-09-17T10:52:34.048Z,7.03
2022-09-17T10:55:19.627Z,3.47
2022-09-17T10:58:05.482Z,4.90
2022-09-17T11:00:46.148Z,5.32
2022-09-17T11:03:47.058Z,7.05
2022-09-17T11:06:39.185Z,7.82
2022-09-17T11:09:21.263Z,4.13
2022-09-17T11:12:02.156Z,4.25
2022-09-17T11:14:52.290Z,6.38
2022-09-17T11:17:43.200Z,5.75
2022-09-17T11:20:26.559Z,5.95
2022-09-17T11:23:09.379Z,6.10
2022-09-17T11:25:49.206Z,4.45
2022-09-17T11:28:35.340Z,3.40
2022-09-17T11:31:15.166Z,8.05
2022-09-17T11:34:10.112Z,7.70
2022-09-17T11:36:49.431Z,13.18
2022-09-17T11:39:24.301Z,6.45
2022-09-17T11:41:55.423Z,2.75
2022-09-17T11:44:28.155Z,4.68
2022-09-17T11:47:04.569Z,2.72
2022-09-17T11:49:41.040Z,4.10
2022-09-17T11:52:15.343Z,3.88
2022-09-17T11:54:51.567Z,4.22
2022-09-17T11:57:23.378Z,3.97
2022-09-17T11:59:55.771Z,4.75
2022-09-17T12:02:30.048Z,4.53
2022-09-17T12:05:03.166Z,5.45
2022-09-17T12:07:47.559Z,6.47
2022-09-17T12:10:35.845Z,7.90
2022-09-17T12:13:14.993Z,9.32
2022-09-17T12:15:52.963Z,6.35
2022-09-17T12:18:35.122Z,8.57
2022-09-17T12:21:06.707Z,6.70
2022-09-17T12:23:41.872Z,7.43
2022-09-17T12:26:23.945Z,5.60
2022-09-17T12:29:01.720Z,5.88
2022-09-17T12:31:40.043Z,6.65
2022-09-17T12:34:28.272Z,6.45
2022-09-17T12:37:06.160Z,10.13
2022-09-17T12:40:04.028Z,8.82
2022-09-17T12:43:07.743Z,8.30
2022-09-17T12:45:52.224Z,10.33
2022-09-17T12:48:56.312Z,7.05
2022-09-17T12:51:45.197Z,6.53
2022-09-17T12:54:25.960Z,4.40
2022-09-17T12:57:03.012Z,4.85
2022-09-17T12:59:34.433Z,4.82
2022-09-17T13:02:16.154Z,4.50
2022-09-17T13:05:10.439Z,7.45
2022-09-17T13:08:07.833Z,8.13
2022-09-17T13:11:06.436Z,7.50
2022-09-17T13:13:45.088Z,7.68
2022-09-17T13:16:22.893Z,5.95
2022-09-17T13:19:17.612Z,5.60
2022-09-17T13:21:54.701Z,5.72
2022-09-17T13:24:26.020Z,5.65
2022-09-17T13:26:56.447Z,4.00
2022-09-17T13:30:01.188Z,6.82
2022-09-17T13:32:49.905Z,5.30
2022-09-17T13:35:51.132Z,7.20
2022-09-17T13:38:23.967Z,4.75
2022-09-17T13:40:53.536Z,2.85
2022-09-17T13:43:28.186Z,2.33
2022-09-17T13:46:15.998Z,5.47
2022-09-17T13:48:56.036Z,3.40
2022-09-17T13:51:54.777Z,2.40
2022-09-17T13:54:25.915Z,3.53
2022-09-17T13:57:10.820Z,5.28
2022-09-17T13:59:40.463Z,2.38
2022-09-17T14:02:37.555Z,3.70
2022-09-17T14:05:32.500Z,3.17
2022-09-17T14:08:31.236Z,2.95
2022-09-17T14:11:24.179Z,4.50
2022-09-17T14:13:53.741Z,4.72
2022-09-17T14:16:50.554Z,3.95
2022-09-17T14:19:31.681Z,3.22
2022-09-17T14:22:03.909Z,1.95
2022-09-17T14:24:38.620Z,2.90
2022-09-17T14:27:16.356Z,4.90
2022-09-17T14:30:03.978Z,1.85
2022-09-17T14:32:39.468Z,3.15
2022-09-17T14:35:20.161Z,2.20
2022-09-17T14:37:55.087Z,5.38
2022-09-17T14:40:26.486Z,3.55
2022-09-17T14:42:57.423Z,2.67
2022-09-17T14:45:29.547Z,2.30
2022-09-17T14:48:29.603Z,3.60
2022-09-17T14:51:15.490Z,3.80
2022-09-17T14:53:44.208Z,3.42
2022-09-17T14:56:16.656Z,3.05
2022-09-17T14:58:50.114Z,3.65
2022-09-17T15:01:25.161Z,1.95
2022-09-17T15:04:11.983Z,2.58
2022-09-17T15:06:40.692Z,1.50
2022-09-17T15:09:16.347Z,2.58
2022-09-17T15:11:49.664Z,2.78
2022-09-17T15:14:21.229Z,0.77
2022-09-17T15:16:51.899Z,2.03
2022-09-17T15:19:25.648Z,1.58
2022-09-17T15:24:34.329Z,3.72
2022-09-17T15:27:11.154Z,4.28
2022-09-17T15:29:42.940Z,3.65
2022-09-17T15:32:14.276Z,4.32
2022-09-17T15:34:42.847Z,2.42
2022-09-17T15:37:20.532Z,3.03
2022-09-17T15:39:52.269Z,3.35
2022-09-17T15:42:28.495Z,3.38
2022-09-17T15:45:09.231Z,3.15
2022-09-17T15:47:53.796Z,3.60
2022-09-17T15:50:24.916Z,1.40
2022-09-17T15:53:00.541Z,1.20
2022-09-17T15:55:34.362Z,1.80
2022-09-17T15:58:07.333Z,1.77
2022-09-17T16:00:35.741Z,1.83
2022-09-17T16:03:54.832Z,1.63
2022-09-17T16:06:40.743Z,2.75
2022-09-17T16:09:41.967Z,2.45
2022-09-17T16:12:14.427Z,2.38
2022-09-17T16:14:49.983Z,2.22
2022-09-17T16:17:33.237Z,2.55
2022-09-17T16:20:06.011Z,2.15
2022-09-17T16:22:34.968Z,4.40
2022-09-17T16:25:03.563Z,1.98
2022-09-17T16:27:37.307Z,2.95
2022-09-17T16:32:38.345Z,1.15
2022-09-17T16:35:07.285Z,0.70
2022-09-17T16:37:35.735Z,1.63
2022-09-17T16:40:04.320Z,1.73
2022-09-17T16:42:33.074Z,2.40
2022-09-17T16:45:03.632Z,1.02
2022-09-17T16:47:38.792Z,2.35
2022-09-17T16:50:09.247Z,3.25
2022-09-17T16:52:37.962Z,3.75
2022-09-17T16:55:07.345Z,2.45
2022-09-17T16:57:36.151Z,1.77
2022-09-17T17:00:06.783Z,1.23
2022-09-17T17:02:36.660Z,1.85
2022-09-17T17:05:05.339Z,1.63
2022-09-17T17:07:33.881Z,1.73
2022-09-17T17:10:02.271Z,1.30
2022-09-17T17:12:31.106Z,1.48
2022-09-17T17:14:59.516Z,1.30
2022-09-17T17:17:27.971Z,0.65
2022-09-17T17:19:57.736Z,0.55
2022-09-17T17:22:26.969Z,1.00
2022-09-17T17:24:55.703Z,1.10
2022-09-17T17:27:24.383Z,0.45
2022-09-17T17:29:53.046Z,2.45
2022-09-17T17:32:21.328Z,0.15
2022-09-17T17:34:50.516Z,1.15
2022-09-17T17:37:22.056Z,1.08
2022-09-17T17:39:51.227Z,1.13
2022-09-17T17:42:19.652Z,1.67
2022-09-17T17:44:48.756Z,2.53
2022-09-17T17:47:17.132Z,2.22
2022-09-17T17:49:45.749Z,1.92
2022-09-17T17:52:14.497Z,3.20
2022-09-17T17:54:44.277Z,2.53
2022-09-17T17:57:12.667Z,2.53
2022-09-17T17:59:41.219Z,3.15
2022-09-17T18:02:11.104Z,3.22
2022-09-17T18:04:39.548Z,4.50
2022-09-17T18:07:09.199Z,5.80
2022-09-17T18:09:37.595Z,7.43
2022-09-17T18:12:08.172Z,6.20
2022-09-17T18:14:36.600Z,4.20
2022-09-17T18:17:05.240Z,5.15
2022-09-17T18:19:33.559Z,3.60
2022-09-17T18:22:01.981Z,6.85
2022-09-17T18:24:30.344Z,7.10
2022-09-17T18:26:58.983Z,5.63
2022-09-17T18:29:29.287Z,4.75
2022-09-17T18:31:57.660Z,4.30
2022-09-17T18:34:26.143Z,4.22
2022-09-17T18:36:54.892Z,9.45
2022-09-17T18:39:56.796Z,3.40
2022-09-17T18:42:11.751Z,4.13
2022-09-17T18:44:41.564Z,4.40
2022-09-17T18:47:09.994Z,3.38
2022-09-17T18:49:38.315Z,4.45
2022-09-17T18:52:06.679Z,5.20
2022-09-17T18:54:35.355Z,5.32
2022-09-17T18:57:03.744Z,4.10
2022-09-17T18:59:32.557Z,7.32
2022-09-17T19:02:02.504Z,7.18
2022-09-17T19:04:30.920Z,4.22
2022-09-17T19:06:59.277Z,5.18
2022-09-17T19:09:27.944Z,5.30
2022-09-17T19:11:56.290Z,2.85
2022-09-17T19:14:24.780Z,3.70
2022-09-17T19:16:55.362Z,7.57
2022-09-17T19:19:25.180Z,4.85
2022-09-17T19:21:53.509Z,5.05
2022-09-17T19:24:21.853Z,4.47
2022-09-17T19:26:51.022Z,3.95
2022-09-17T19:29:19.623Z,2.60
2022-09-17T19:31:48.019Z,4.32
2022-09-17T19:34:16.440Z,5.65
2022-09-17T19:36:46.220Z,5.70
2022-09-17T19:39:14.544Z,4.05
2022-09-17T19:41:42.928Z,3.08
2022-09-17T19:44:12.073Z,6.03
2022-09-17T19:46:41.333Z,5.65
2022-09-17T19:49:11.007Z,4.03
2022-09-17T19:51:40.059Z,3.60
2022-09-17T19:54:10.940Z,3.25
2022-09-17T19:56:39.303Z,5.97
2022-09-17T19:59:09.210Z,4.00
2022-09-17T20:01:38.972Z,5.38
2022-09-17T20:04:09.020Z,5.10
2022-09-17T20:06:38.967Z,3.90
2022-09-17T20:09:08.993Z,4.07
2022-09-17T20:11:42.278Z,4.85
2022-09-17T20:14:13.167Z,10.60
2022-09-17T20:16:44.163Z,5.13
2022-09-17T20:19:17.034Z,4.30
2022-09-17T20:21:47.928Z,5.63
2022-09-17T20:24:17.860Z,5.38
2022-09-17T20:26:49.749Z,5.30
2022-09-17T20:29:19.428Z,6.28
2022-09-17T20:31:49.334Z,4.57
2022-09-17T20:34:19.230Z,3.67
2022-09-17T20:36:49.101Z,5.13
2022-09-17T20:39:22.815Z,4.88
2022-09-17T20:41:53.827Z,5.95
2022-09-17T20:44:23.365Z,3.70
2022-09-17T20:46:53.091Z,8.18
2022-09-17T20:49:23.004Z,6.80
2022-09-17T20:51:52.803Z,5.95
2022-09-17T20:54:22.724Z,8.43
2022-09-17T20:56:56.192Z,3.65
2022-09-17T20:59:30.915Z,7.88
2022-09-17T21:02:00.126Z,3.72
2022-09-17T21:04:28.655Z,5.88
2022-09-17T21:06:57.071Z,4.43
2022-09-17T21:09:25.419Z,6.28
2022-09-17T21:11:55.804Z,6.53
2022-09-17T21:14:25.326Z,5.47
2022-09-17T21:16:55.927Z,5.38
2022-09-17T21:19:25.534Z,8.50
2022-09-17T21:21:54.781Z,3.08
2022-09-17T21:24:23.588Z,5.95
2022-09-17T21:26:54.264Z,5.15
2022-09-17T21:29:24.136Z,6.90
2022-09-17T21:31:53.177Z,7.10
2022-09-17T21:34:22.106Z,6.18
2022-09-17T21:36:51.649Z,4.40
2022-09-17T21:39:20.418Z,9.60
2022-09-17T21:41:49.360Z,8.73
2022-09-17T21:44:17.703Z,8.77
2022-09-17T21:46:48.751Z,7.53
2022-09-17T21:49:18.532Z,8.38
2022-09-17T21:51:46.923Z,5.10
2022-09-17T21:54:17.178Z,6.45
2022-09-17T21:56:46.463Z,4.97
2022-09-17T21:59:16.354Z,5.95
2022-09-17T22:01:47.608Z,5.57
2022-09-17T22:04:18.018Z,5.93
2022-09-17T22:06:47.640Z,5.03
2022-09-17T22:09:18.917Z,8.68
2022-09-17T22:11:47.701Z,9.90
2022-09-17T22:14:19.757Z,9.65
2022-09-17T22:16:52.710Z,6.90
2022-09-17T22:19:22.093Z,8.30
2022-09-17T22:21:52.079Z,7.05
2022-09-17T22:24:22.114Z,11.02
2022-09-17T22:26:56.892Z,16.92
2022-09-17T22:29:27.437Z,9.93
2022-09-17T22:31:57.497Z,7.43
2022-09-17T22:34:26.856Z,7.38
2022-09-17T22:36:55.331Z,8.45
2022-09-17T22:39:24.051Z,5.47
2022-09-17T22:41:52.545Z,9.95
2022-09-17T22:44:21.948Z,6.57
2022-09-17T22:46:51.983Z,6.57
2022-09-17T22:49:21.995Z,9.30
2022-09-17T22:51:50.320Z,5.43
2022-09-17T22:54:20.481Z,5.40
2022-09-17T22:56:49.608Z,7.90
2022-09-17T22:59:19.151Z,6.03
2022-09-17T23:01:48.194Z,8.68
2022-09-17T23:04:16.596Z,4.07
2022-09-17T23:06:46.379Z,7.40
2022-09-17T23:09:15.367Z,4.45
2022-09-17T23:11:45.215Z,5.25
2022-09-17T23:14:14.811Z,4.72
2022-09-17T23:16:44.818Z,4.55
2022-09-17T23:19:13.640Z,7.72
2022-09-17T23:21:42.447Z,5.07
2022-09-17T23:24:17.910Z,7.60
2022-09-17T23:26:46.329Z,6.03
2022-09-17T23:29:15.328Z,4.07
2022-09-17T23:31:44.394Z,5.53
2022-09-17T23:34:12.844Z,7.88
2022-09-17T23:36:41.419Z,5.30
2022-09-17T23:39:12.732Z,5.80
2022-09-17T23:41:44.908Z,6.25
2022-09-17T23:44:15.988Z,6.70
2022-09-17T23:46:46.630Z,4.30
2022-09-17T23:49:15.973Z,3.78
2022-09-17T23:51:44.563Z,4.22
2022-09-17T23:54:14.771Z,8.85
2022-09-17T23:56:43.305Z,3.90
2022-09-17T23:59:12.422Z,9.55
